Time;durP1;ratioP1;P1;durP2;ratioP2;P2;SDS_P1;SDS_P2;PMS_P1;PMS_P2;Temp;Humidity;BMP_temperature;BMP_pressure;BME280_temperature;BME280_humidity;BME280_pressure;Samples;Min_cycle;Max_cycle;Signal;HPM_P1;HPM_P2
2023/12/22 00:01:27;;;;;;;1.50;0.60;;;6.70;28.90;;;;;;4993761;28;20224;-69
2023/12/22 00:03:53;;;;;;;3.50;0.87;;;6.70;29.50;;;;;;4992146;28;20186;-69
2023/12/22 00:06:18;;;;;;;3.40;0.80;;;6.70;30.20;;;;;;4993327;28;20216;-69
2023/12/22 00:08:44;;;;;;;3.40;0.60;;;6.80;27.70;;;;;;4993419;28;20335;-68
2023/12/22 00:11:09;;;;;;;1.77;0.87;;;6.80;28.20;;;;;;4991931;28;20547;-69
2023/12/22 00:13:35;;;;;;;2.60;1.10;;;6.80;27.30;;;;;;4991968;28;20237;-69
2023/12/22 00:16:01;;;;;;;1.70;0.80;;;6.90;26.60;;;;;;4993162;28;20589;-68
2023/12/22 00:18:27;;;;;;;2.27;0.93;;;6.90;26.20;;;;;;4993042;28;20188;-68
2023/12/22 00:20:53;;;;;;;1.70;0.87;;;6.90;26.20;;;;;;4991910;28;20236;-68
2023/12/22 00:23:18;;;;;;;4.33;1.40;;;6.80;26.60;;;;;;4992080;28;20957;-68
2023/12/22 00:25:44;;;;;;;3.93;1.23;;;6.80;26.30;;;;;;4992153;28;20504;-68
2023/12/22 00:28:09;;;;;;;3.60;1.60;;;6.90;24.40;;;;;;4992790;28;20676;-68
2023/12/22 00:30:35;;;;;;;4.07;1.07;;;6.90;24.70;;;;;;4991462;28;20294;-68
2023/12/22 00:33:01;;;;;;;4.40;1.67;;;6.90;22.90;;;;;;4992825;28;20757;-68
2023/12/22 00:35:26;;;;;;;4.63;1.20;;;6.90;24.20;;;;;;4992857;28;20177;-68
2023/12/22 00:37:52;;;;;;;2.33;1.10;;;6.90;23.90;;;;;;4991920;28;20594;-68
2023/12/22 00:40:18;;;;;;;5.70;1.77;;;6.90;24.90;;;;;;4991580;28;20582;-67
2023/12/22 00:42:44;;;;;;;5.83;2.00;;;6.90;25.00;;;;;;4993050;28;20514;-67
2023/12/22 00:45:10;;;;;;;6.53;1.77;;;6.90;24.40;;;;;;4993059;28;20183;-68
2023/12/22 00:47:36;;;;;;;5.53;1.10;;;6.90;24.30;;;;;;4993110;28;20464;-67
2023/12/22 00:50:02;;;;;;;2.80;1.50;;;6.80;24.30;;;;;;4991332;28;20425;-67
2023/12/22 00:52:28;;;;;;;4.30;1.07;;;6.80;23.90;;;;;;4993067;28;20182;-68
2023/12/22 00:54:53;;;;;;;2.60;1.20;;;6.90;22.00;;;;;;4992800;28;20420;-68
2023/12/22 00:57:19;;;;;;;6.10;1.60;;;6.90;21.30;;;;;;4993137;28;20219;-67
2023/12/22 00:59:47;;;;;;;3.03;1.60;;;6.90;21.30;;;;;;4992467;28;20682;-67
2023/12/22 01:02:16;;;;;;;4.43;1.93;;;6.90;20.00;;;;;;4992669;28;20204;-68
2023/12/22 01:04:43;;;;;;;2.87;1.30;;;6.90;18.30;;;;;;4991291;28;20503;-69
2023/12/22 01:07:09;;;;;;;5.33;1.27;;;6.90;17.50;;;;;;4992577;28;20415;-69
2023/12/22 01:09:36;;;;;;;8.03;1.40;;;7.00;14.60;;;;;;4992198;28;20419;-69
2023/12/22 01:12:03;;;;;;;3.03;1.00;;;7.10;15.00;;;;;;4992366;28;20429;-69
2023/12/22 01:14:29;;;;;;;2.50;1.13;;;7.20;14.90;;;;;;4992413;28;20905;-69
2023/12/22 01:16:55;;;;;;;5.80;2.77;;;7.20;14.30;;;;;;4991323;28;20413;-69
2023/12/22 01:19:20;;;;;;;4.70;1.83;;;7.30;13.10;;;;;;4990727;28;20827;-70
2023/12/22 01:21:46;;;;;;;3.70;1.27;;;7.30;14.00;;;;;;4990939;28;20202;-69
2023/12/22 01:24:12;;;;;;;3.10;1.27;;;7.30;13.10;;;;;;4991046;28;20184;-69
2023/12/22 01:26:37;;;;;;;3.70;1.57;;;7.30;14.20;;;;;;4992233;28;20179;-70
2023/12/22 01:29:03;;;;;;;6.70;1.37;;;7.20;15.70;;;;;;4991885;28;20237;-69
2023/12/22 01:31:29;;;;;;;2.23;0.87;;;7.20;16.80;;;;;;4992194;28;20285;-69
2023/12/22 01:33:54;;;;;;;2.73;1.27;;;7.00;14.00;;;;;;4990817;28;20173;-69
2023/12/22 01:36:20;;;;;;;4.80;0.80;;;6.90;16.20;;;;;;4993470;28;20362;-69
2023/12/22 01:38:45;;;;;;;2.80;0.97;;;6.70;17.00;;;;;;4996078;28;20178;-69
2023/12/22 01:41:11;;;;;;;3.00;0.80;;;6.60;21.20;;;;;;4994696;28;20202;-69
2023/12/22 01:43:37;;;;;;;1.87;0.70;;;6.50;22.60;;;;;;4996071;28;20177;-69
2023/12/22 01:46:03;;;;;;;2.03;0.70;;;6.40;23.80;;;;;;4996160;28;20236;-69
2023/12/22 01:48:30;;;;;;;2.50;1.10;;;6.30;25.80;;;;;;4994432;28;20704;-69
2023/12/22 01:50:58;;;;;;;1.70;0.60;;;6.20;25.00;;;;;;4995843;28;20451;-69
2023/12/22 01:53:25;;;;;;;2.23;0.70;;;6.10;25.00;;;;;;4995870;28;20419;-69
2023/12/22 01:55:52;;;;;;;2.23;0.50;;;6.00;25.60;;;;;;4994711;28;20424;-69
2023/12/22 01:58:23;;;;;;;1.60;0.67;;;5.90;27.20;;;;;;4996033;28;20431;-70
2023/12/22 02:00:48;;;;;;;1.43;0.60;;;5.80;27.40;;;;;;4994379;28;20466;-70
2023/12/22 02:03:15;;;;;;;1.80;0.70;;;;;;;;;;4996167;28;20890;-70
2023/12/22 02:05:46;;;;;;;2.10;0.57;;;6.20;35.00;;;;;;4996430;28;20182;-70
2023/12/22 02:08:12;;;;;;;1.87;0.53;;;6.10;37.00;;;;;;4997443;28;20910;-70
2023/12/22 02:10:38;;;;;;;1.70;0.67;;;6.00;36.10;;;;;;4994775;28;20842;-70
2023/12/22 02:13:09;;;;;;;1.60;0.60;;;6.00;36.10;;;;;;4995806;28;20431;-70
2023/12/22 02:15:35;;;;;;;1.70;0.60;;;5.90;38.50;;;;;;4995562;28;20407;-70
2023/12/22 02:18:16;;;;;;;1.70;0.60;;;5.80;35.60;;;;;;4995521;28;20416;-71
2023/12/22 02:20:44;;;;;;;1.77;0.80;;;5.80;37.40;;;;;;4995177;28;20803;-70
2023/12/22 02:23:09;;;;;;;1.93;0.70;;;5.90;36.20;;;;;;4995821;28;20416;-69
2023/12/22 02:25:35;;;;;;;1.50;0.60;;;5.90;35.30;;;;;;4995398;28;20474;-69
2023/12/22 02:28:15;;;;;;;3.00;0.90;;;6.00;37.20;;;;;;4993903;28;20212;-70
2023/12/22 02:30:46;;;;;;;2.20;1.10;;;5.90;38.20;;;;;;4995039;28;20204;-69
2023/12/22 02:33:15;;;;;;;2.00;1.00;;;5.90;38.00;;;;;;4995307;28;20419;-69
2023/12/22 02:35:42;;;;;;;4.47;0.80;;;5.90;38.80;;;;;;4995014;28;20416;-69
2023/12/22 02:38:09;;;;;;;2.47;1.07;;;5.90;38.20;;;;;;4995058;28;20909;-69
2023/12/22 02:40:35;;;;;;;2.03;0.90;;;5.90;38.80;;;;;;4994703;28;20447;-69
2023/12/22 02:43:02;;;;;;;3.80;1.00;;;6.00;38.10;;;;;;4995091;28;20416;-69
2023/12/22 02:45:27;;;;;;;4.67;1.27;;;6.00;39.00;;;;;;4994943;28;20799;-69
2023/12/22 02:47:53;;;;;;;2.30;1.00;;;6.10;37.30;;;;;;4993834;28;20546;-69
2023/12/22 02:50:19;;;;;;;6.03;1.57;;;6.20;43.30;;;;;;4994617;28;20621;-68
2023/12/22 02:52:44;;;;;;;2.27;1.10;;;6.30;42.40;;;;;;4993553;28;20691;-69
2023/12/22 02:55:10;;;;;;;3.00;1.37;;;6.30;42.10;;;;;;4994731;28;20270;-69
2023/12/22 02:57:35;;;;;;;1.90;0.97;;;6.40;41.70;;;;;;4994694;28;20263;-69
2023/12/22 03:00:01;;;;;;;2.77;1.13;;;6.40;41.80;;;;;;4992954;28;20197;-70
2023/12/22 03:02:27;;;;;;;3.90;1.67;;;6.50;40.40;;;;;;4994920;28;20189;-70
2023/12/22 03:04:53;;;;;;;3.77;1.00;;;6.50;40.80;;;;;;4993511;28;20487;-70
2023/12/22 03:07:18;;;;;;;3.47;1.40;;;6.60;40.00;;;;;;4994796;28;22058;-70
2023/12/22 03:09:44;;;;;;;4.60;1.20;;;6.60;41.10;;;;;;4994303;28;20180;-70
2023/12/22 03:12:10;;;;;;;3.40;0.87;;;6.70;40.50;;;;;;4993352;28;20201;-69
2023/12/22 03:14:36;;;;;;;2.30;1.23;;;6.60;41.60;;;;;;4994562;28;20181;-69
2023/12/22 03:17:04;;;;;;;8.73;2.60;;;6.60;41.90;;;;;;4994483;28;20789;-69
2023/12/22 03:19:30;;;;;;;4.50;1.43;;;6.60;39.40;;;;;;4994181;28;20511;-70
2023/12/22 03:21:58;;;;;;;1.60;0.67;;;6.60;37.40;;;;;;4994327;28;20519;-69
2023/12/22 03:24:25;;;;;;;2.93;0.80;;;6.60;36.70;;;;;;4992850;28;20507;-69
2023/12/22 03:26:51;;;;;;;2.80;0.73;;;6.60;35.70;;;;;;4994310;28;20420;-70
2023/12/22 03:29:17;;;;;;;3.30;0.90;;;6.50;34.60;;;;;;4993966;28;20478;-69
2023/12/22 03:31:43;;;;;;;2.13;0.70;;;6.50;35.70;;;;;;4994165;28;20935;-69
2023/12/22 03:34:09;;;;;;;2.73;0.80;;;6.50;37.00;;;;;;4992718;28;20181;-70
2023/12/22 03:36:34;;;;;;;4.40;1.00;;;6.40;36.30;;;;;;4992538;28;20426;-69
2023/12/22 03:39:00;;;;;;;2.50;0.97;;;6.40;35.50;;;;;;4993661;28;20605;-69
2023/12/22 03:41:26;;;;;;;3.77;0.83;;;6.40;33.70;;;;;;4993812;28;20630;-69
2023/12/22 03:43:51;;;;;;;1.80;0.60;;;6.40;34.20;;;;;;4994179;28;20181;-69
2023/12/22 03:46:18;;;;;;;4.70;0.90;;;6.50;32.00;;;;;;4993879;28;20212;-69
2023/12/22 03:48:44;;;;;;;2.80;0.87;;;6.50;31.80;;;;;;4993911;28;20230;-70
2023/12/22 03:51:11;;;;;;;4.20;1.00;;;6.50;33.30;;;;;;4993770;28;20445;-70
2023/12/22 03:53:37;;;;;;;1.93;0.70;;;6.50;32.80;;;;;;4993752;28;20215;-70
2023/12/22 03:56:03;;;;;;;5.40;1.37;;;6.50;32.70;;;;;;4992442;28;20452;-70
2023/12/22 03:58:30;;;;;;;3.33;1.27;;;6.50;31.90;;;;;;4993130;28;20424;-70
2023/12/22 04:00:56;;;;;;;2.33;1.00;;;6.50;32.80;;;;;;4992125;28;20228;-70
2023/12/22 04:03:21;;;;;;;1.87;0.80;;;6.50;32.90;;;;;;4993366;28;20766;-70
2023/12/22 04:05:47;;;;;;;2.43;0.87;;;6.50;33.30;;;;;;4993310;28;20415;-70
2023/12/22 04:08:12;;;;;;;2.90;0.90;;;6.50;33.50;;;;;;4993375;28;20210;-70
2023/12/22 04:10:38;;;;;;;2.13;0.83;;;6.50;34.30;;;;;;4992950;28;20197;-70
2023/12/22 04:13:03;;;;;;;4.43;1.10;;;6.50;35.00;;;;;;4993403;28;20181;-72
2023/12/22 04:15:29;;;;;;;3.10;1.10;;;6.50;36.30;;;;;;4991937;28;20616;-70
2023/12/22 04:17:54;;;;;;;5.13;0.97;;;6.50;35.80;;;;;;4991915;28;20189;-70
2023/12/22 04:20:20;;;;;;;2.93;1.53;;;6.50;35.90;;;;;;4992788;28;20671;-70
2023/12/22 04:22:45;;;;;;;2.17;1.07;;;6.60;36.80;;;;;;4993140;28;20186;-69
2023/12/22 04:25:11;;;;;;;11.60;1.27;;;6.60;36.30;;;;;;4992993;28;20222;-70
2023/12/22 04:27:37;;;;;;;3.80;1.40;;;6.60;36.00;;;;;;4992953;28;20789;-70
2023/12/22 04:30:03;;;;;;;3.03;1.10;;;6.60;36.60;;;;;;4991739;28;20173;-69
2023/12/22 04:32:28;;;;;;;6.50;1.10;;;6.60;42.30;;;;;;4991718;28;20181;-69
2023/12/22 04:34:54;;;;;;;7.90;1.60;;;6.70;40.40;;;;;;4992083;28;20421;-69
2023/12/22 04:37:19;;;;;;;3.20;1.20;;;6.60;34.90;;;;;;4992585;28;20225;-69
2023/12/22 04:39:45;;;;;;;6.83;1.63;;;6.70;34.50;;;;;;4993889;28;20194;-69
2023/12/22 04:42:10;;;;;;;4.67;1.40;;;6.80;35.60;;;;;;4992164;28;20207;-69
2023/12/22 04:44:36;;;;;;;2.40;1.20;;;6.80;34.50;;;;;;4991701;28;20186;-69
2023/12/22 04:47:02;;;;;;;3.00;1.60;;;6.70;32.60;;;;;;4991594;28;20269;-69
2023/12/22 04:49:27;;;;;;;7.97;1.10;;;6.80;32.40;;;;;;4992601;28;20293;-69
2023/12/22 04:51:53;;;;;;;7.20;2.47;;;6.80;32.00;;;;;;4993300;28;20445;-69
2023/12/22 04:54:18;;;;;;;4.07;1.37;;;6.50;32.20;;;;;;4992739;28;20254;-70
2023/12/22 04:56:44;;;;;;;5.83;1.83;;;6.80;34.60;;;;;;4992691;28;20633;-70
2023/12/22 04:59:09;;;;;;;3.23;1.33;;;7.00;40.20;;;;;;4992452;28;20703;-69
2023/12/22 05:01:35;;;;;;;6.10;1.50;;;6.80;40.60;;;;;;4992396;28;20216;-69
2023/12/22 05:04:01;;;;;;;3.03;0.97;;;6.70;39.20;;;;;;4992530;28;20622;-69
2023/12/22 05:06:29;;;;;;;2.00;1.00;;;6.80;37.80;;;;;;4991014;28;20185;-69
2023/12/22 05:08:56;;;;;;;6.03;1.50;;;6.70;40.70;;;;;;4992165;28;20551;-69
2023/12/22 05:11:21;;;;;;;3.27;1.77;;;6.70;39.50;;;;;;4991879;28;20444;-69
2023/12/22 05:13:47;;;;;;;7.10;1.67;;;6.60;41.60;;;;;;4992496;28;20409;-69
2023/12/22 05:16:13;;;;;;;5.03;1.67;;;6.60;39.40;;;;;;4992850;28;20177;-69
2023/12/22 05:18:39;;;;;;;4.60;1.53;;;6.60;40.50;;;;;;4992153;28;20188;-69
2023/12/22 05:21:05;;;;;;;3.17;1.20;;;6.60;39.40;;;;;;4992278;28;20202;-70
2023/12/22 05:23:30;;;;;;;5.53;1.50;;;6.60;39.50;;;;;;4992182;28;20498;-69
2023/12/22 05:25:56;;;;;;;2.73;1.60;;;6.60;37.30;;;;;;4991001;28;20195;-69
2023/12/22 05:28:22;;;;;;;5.53;1.57;;;6.60;37.40;;;;;;4990907;28;20204;-69
2023/12/22 05:30:47;;;;;;;6.00;1.37;;;6.70;36.00;;;;;;4992470;28;20200;-69
2023/12/22 05:33:13;;;;;;;5.83;1.67;;;6.70;34.00;;;;;;4992460;28;20177;-69
2023/12/22 05:35:38;;;;;;;2.57;1.30;;;6.80;33.60;;;;;;4994298;28;20211;-70
2023/12/22 05:38:04;;;;;;;5.00;2.10;;;6.80;31.60;;;;;;4992561;28;20186;-69
2023/12/22 05:40:32;;;;;;;4.20;1.57;;;6.90;30.80;;;;;;4991949;28;20198;-69
2023/12/22 05:42:58;;;;;;;5.00;1.67;;;6.90;30.00;;;;;;4991016;28;20216;-69
2023/12/22 05:45:26;;;;;;;6.17;2.40;;;7.00;29.60;;;;;;5000707;28;20427;-69
2023/12/22 05:47:52;;;;;;;4.20;2.20;;;7.00;29.50;;;;;;5010507;28;20293;-69
2023/12/22 05:50:17;;;;;;;9.93;2.30;;;7.10;28.90;;;;;;5011952;28;20539;-69
2023/12/22 05:52:46;;;;;;;4.97;1.60;;;7.10;28.10;;;;;;5011834;28;20220;-69
2023/12/22 05:55:11;;;;;;;4.83;1.90;;;7.10;28.00;;;;;;5010750;28;20189;-69
2023/12/22 05:57:37;;;;;;;3.67;1.90;;;7.10;27.70;;;;;;5011675;28;20793;-69
2023/12/22 06:00:09;;;;;;;8.20;2.20;;;7.10;26.00;;;;;;5011248;28;20236;-70
2023/12/22 06:02:35;;;;;;;5.10;1.67;;;7.20;26.10;;;;;;5010491;28;20198;-70
2023/12/22 06:05:01;;;;;;;5.90;1.80;;;7.20;27.00;;;;;;5011275;28;20791;-69
2023/12/22 06:07:27;;;;;;;6.37;1.90;;;7.20;26.90;;;;;;5010152;28;20669;-70
2023/12/22 06:09:52;;;;;;;4.70;2.13;;;7.20;26.20;;;;;;5010035;28;20428;-69
2023/12/22 06:12:18;;;;;;;9.07;2.70;;;7.20;26.50;;;;;;5011472;28;20201;-70
2023/12/22 06:14:43;;;;;;;5.20;1.73;;;7.20;26.40;;;;;;5011469;28;20178;-70
2023/12/22 06:17:09;;;;;;;9.50;3.53;;;7.30;26.80;;;;;;5011367;28;20652;-69
2023/12/22 06:19:38;;;;;;;5.43;1.90;;;7.30;26.10;;;;;;5011581;28;20211;-70
2023/12/22 06:22:03;;;;;;;4.37;2.07;;;7.30;25.90;;;;;;5011499;28;20212;-69
2023/12/22 06:24:29;;;;;;;3.47;1.43;;;7.30;26.60;;;;;;5013083;28;20425;-69
2023/12/22 06:26:55;;;;;;;4.37;2.03;;;7.30;27.90;;;;;;5015006;28;20183;-69
2023/12/22 06:29:20;;;;;;;4.70;1.60;;;7.20;29.70;;;;;;5014716;28;20205;-69
2023/12/22 06:31:50;;;;;;;3.23;1.60;;;7.10;32.20;;;;;;5014608;28;20346;-68
2023/12/22 06:34:16;;;;;;;5.60;1.90;;;7.20;40.50;;;;;;5014814;28;20174;-69
2023/12/22 06:36:42;;;;;;;4.67;1.90;;;6.90;39.30;;;;;;5013411;28;20451;-69
2023/12/22 06:39:08;;;;;;;2.73;1.23;;;6.70;39.80;;;;;;5014713;28;20427;-69
2023/12/22 06:41:33;;;;;;;3.10;1.67;;;6.70;42.40;;;;;;5014524;28;20962;-69
2023/12/22 06:44:02;;;;;;;7.10;2.03;;;6.60;42.30;;;;;;5014594;28;20268;-68
2023/12/22 06:46:31;;;;;;;2.73;1.27;;;6.40;45.40;;;;;;5010261;28;20197;-69
2023/12/22 06:48:57;;;;;;;4.00;2.20;;;6.40;52.60;;;;;;5014370;28;20966;-67
2023/12/22 06:51:25;;;;;;;6.20;2.10;;;6.30;55.30;;;;;;5014405;28;20854;-68
2023/12/22 06:53:52;;;;;;;6.60;1.70;;;6.30;54.10;;;;;;5014690;28;20416;-67
2023/12/22 06:56:22;;;;;;;6.93;1.87;;;6.20;56.10;;;;;;5014817;28;20425;-67
2023/12/22 06:58:50;;;;;;;4.80;2.03;;;6.20;56.00;;;;;;5014924;28;20948;-67
2023/12/22 07:01:32;;;;;;;6.13;1.60;;;6.20;54.60;;;;;;5038417;22;20498;-72
2023/12/22 07:04:01;;;;;;;9.47;1.73;;;6.20;55.00;;;;;;5014262;28;20411;-70
2023/12/22 07:06:30;;;;;;;6.40;1.70;;;6.30;45.20;;;;;;5013803;28;20468;-70
2023/12/22 07:09:17;;;;;;;4.07;1.80;;;6.40;43.10;;;;;;5013700;28;20440;-70
2023/12/22 07:11:50;;;;;;;9.10;2.70;;;6.40;39.80;;;;;;5003316;28;20484;-70
2023/12/22 07:14:17;;;;;;;3.77;1.67;;;6.50;38.00;;;;;;5014276;28;20411;-72
2023/12/22 07:16:43;;;;;;;5.80;1.93;;;6.50;36.90;;;;;;5013936;28;20528;-71
2023/12/22 07:19:08;;;;;;;9.23;1.83;;;6.50;37.60;;;;;;4994678;28;20472;-71
2023/12/22 07:21:34;;;;;;;3.63;1.70;;;6.60;35.60;;;;;;5027600;28;20474;-72
2023/12/22 07:24:03;;;;;;;5.60;2.07;;;6.50;37.10;;;;;;5013785;28;20173;-72
2023/12/22 07:26:29;;;;;;;7.17;1.97;;;6.60;38.50;;;;;;5013772;28;20415;-72
2023/12/22 07:28:55;;;;;;;6.13;1.90;;;6.60;37.50;;;;;;4995901;28;20464;-72
2023/12/22 07:31:21;;;;;;;6.40;2.47;;;6.60;36.30;;;;;;4996232;28;20195;-72
2023/12/22 07:33:46;;;;;;;4.47;1.70;;;6.70;36.70;;;;;;5013184;28;20229;-72
2023/12/22 07:36:12;;;;;;;3.57;1.90;;;6.70;33.90;;;;;;5013627;28;20809;-73
2023/12/22 07:38:41;;;;;;;8.87;3.00;;;6.70;34.20;;;;;;5013246;28;20543;-72
2023/12/22 07:41:06;;;;;;;4.27;1.40;;;6.70;33.90;;;;;;5013305;28;20201;-72
2023/12/22 07:43:32;;;;;;;3.70;1.70;;;6.80;34.60;;;;;;5013465;28;20409;-72
2023/12/22 07:45:58;;;;;;;4.50;2.90;;;6.80;33.60;;;;;;5013369;28;20181;-70
2023/12/22 07:48:26;;;;;;;5.87;2.83;;;6.80;32.30;;;;;;5012928;28;20202;-72
2023/12/22 07:50:51;;;;;;;4.10;1.73;;;6.90;34.50;;;;;;5013469;28;20198;-71
2023/12/22 07:53:17;;;;;;;7.93;3.93;;;6.90;33.90;;;;;;5015047;28;20417;-71
2023/12/22 07:55:46;;;;;;;12.73;2.57;;;7.00;34.80;;;;;;5016958;28;20179;-71
2023/12/22 07:58:12;;;;;;;8.20;1.87;;;7.00;35.50;;;;;;5013214;28;20530;-70
2023/12/22 08:00:38;;;;;;;2.80;1.50;;;7.00;35.90;;;;;;5012723;28;20457;-69
2023/12/22 08:03:04;;;;;;;6.80;2.27;;;7.00;36.60;;;;;;4996407;28;20430;-70
2023/12/22 08:05:30;;;;;;;10.73;2.40;;;7.00;37.50;;;;;;4996915;28;20182;-72
2023/12/22 08:07:55;;;;;;;6.17;2.50;;;7.00;38.30;;;;;;5014384;28;20460;-72
2023/12/22 08:10:21;;;;;;;6.20;2.03;;;7.00;38.20;;;;;;5012966;28;20205;-72
2023/12/22 08:12:46;;;;;;;3.20;1.60;;;7.10;39.30;;;;;;4995708;28;20173;-71
2023/12/22 08:15:12;;;;;;;6.93;2.90;;;7.10;38.70;;;;;;5013287;28;20204;-72
2023/12/22 08:17:48;;;;;;;4.20;2.50;;;7.10;39.90;;;;;;4996469;28;20186;-72
2023/12/22 08:20:20;;;;;;;3.47;1.80;;;7.10;39.80;;;;;;5012546;28;20185;-72
2023/12/22 08:22:49;;;;;;;5.00;1.57;;;7.10;40.10;;;;;;5012625;28;20436;-72
2023/12/22 08:25:17;;;;;;;5.10;2.33;;;7.00;41.10;;;;;;5012492;28;20425;-71
2023/12/22 08:27:42;;;;;;;4.23;1.63;;;7.00;41.20;;;;;;4994681;28;20462;-71
2023/12/22 08:30:09;;;;;;;7.80;2.00;;;7.10;40.90;;;;;;5027130;28;20416;-71
2023/12/22 08:32:35;;;;;;;7.80;2.40;;;7.10;42.40;;;;;;5020097;28;20194;-71
2023/12/22 08:35:00;;;;;;;5.73;2.10;;;7.00;40.80;;;;;;5031856;28;20767;-72
2023/12/22 08:37:26;;;;;;;6.03;2.40;;;7.00;42.40;;;;;;5032091;28;20533;-73
2023/12/22 08:39:52;;;;;;;4.90;1.60;;;7.00;41.40;;;;;;5032772;28;20652;-71
2023/12/22 08:42:18;;;;;;;6.60;2.53;;;7.10;41.60;;;;;;5017662;28;20240;-72
2023/12/22 08:44:43;;;;;;;6.53;2.23;;;7.10;41.20;;;;;;5014270;28;20991;-71
2023/12/22 08:47:09;;;;;;;9.97;3.00;;;7.20;41.40;;;;;;5015518;28;20421;-71
2023/12/22 08:49:35;;;;;;;12.60;2.07;;;7.10;41.60;;;;;;5013638;28;20225;-71
2023/12/22 08:52:01;;;;;;;7.90;2.50;;;7.10;41.20;;;;;;5012334;28;20538;-71
2023/12/22 08:54:27;;;;;;;4.33;2.20;;;7.20;39.90;;;;;;5012221;28;20166;-70
2023/12/22 08:56:52;;;;;;;12.20;3.20;;;7.20;40.00;;;;;;5013683;28;20482;-71
2023/12/22 08:59:18;;;;;;;7.10;2.23;;;7.30;40.50;;;;;;5028176;28;20726;-70
2023/12/22 09:01:43;;;;;;;6.10;2.07;;;7.20;41.50;;;;;;4991265;28;20235;-71
2023/12/22 09:04:11;;;;;;;6.63;1.77;;;7.20;43.70;;;;;;4988043;28;20198;-69
2023/12/22 09:06:36;;;;;;;8.50;2.10;;;7.10;46.70;;;;;;4989075;28;20273;-72
2023/12/22 09:09:03;;;;;;;6.83;2.10;;;7.00;48.60;;;;;;4981832;28;21115;-71
2023/12/22 09:11:29;;;;;;;11.73;2.47;;;7.00;49.10;;;;;;5027321;28;20557;-72
2023/12/22 09:13:54;;;;;;;13.40;2.37;;;7.00;49.90;;;;;;5028232;28;20411;-71
2023/12/22 09:16:21;;;;;;;4.80;2.20;;;6.90;50.20;;;;;;5027478;28;20182;-71
2023/12/22 09:18:47;;;;;;;4.97;1.80;;;6.90;51.90;;;;;;5027454;28;20287;-71
2023/12/22 09:21:12;;;;;;;9.47;1.83;;;6.90;53.60;;;;;;5028387;28;20509;-71
2023/12/22 09:23:38;;;;;;;6.07;2.57;;;6.90;54.00;;;;;;5017933;28;20186;-71
2023/12/22 09:26:04;;;;;;;9.93;2.60;;;6.90;53.40;;;;;;5008275;28;20685;-72
2023/12/22 09:28:30;;;;;;;5.63;2.30;;;6.90;53.90;;;;;;5009826;28;20208;-72
2023/12/22 09:30:56;;;;;;;4.70;2.00;;;6.90;54.60;;;;;;4989351;28;20459;-71
2023/12/22 09:33:22;;;;;;;3.33;1.70;;;6.90;54.70;;;;;;5007014;28;20446;-71
2023/12/22 09:35:48;;;;;;;10.90;2.80;;;6.90;53.30;;;;;;5008314;28;20180;-72
2023/12/22 09:38:13;;;;;;;5.27;2.07;;;7.00;53.90;;;;;;4990712;28;20869;-72
2023/12/22 09:40:39;;;;;;;10.80;2.50;;;6.90;54.60;;;;;;5008786;28;20214;-72
2023/12/22 09:43:08;;;;;;;5.33;1.53;;;6.90;55.80;;;;;;5008383;28;20186;-71
2023/12/22 09:45:34;;;;;;;6.53;1.70;;;6.80;57.00;;;;;;5007771;28;20430;-72
2023/12/22 09:48:01;;;;;;;4.70;1.93;;;6.80;57.50;;;;;;5007260;28;20461;-72
2023/12/22 09:50:28;;;;;;;5.47;1.57;;;6.80;58.40;;;;;;5009789;28;20459;-72
2023/12/22 09:52:54;;;;;;;3.90;1.83;;;6.80;58.20;;;;;;4991148;28;20808;-72
2023/12/22 09:55:22;;;;;;;4.23;1.60;;;6.90;58.20;;;;;;4989682;28;20460;-72
2023/12/22 09:57:48;;;;;;;6.83;2.30;;;6.90;57.10;;;;;;4992458;28;20482;-72
2023/12/22 10:00:15;;;;;;;5.90;2.50;;;6.90;56.60;;;;;;5011054;28;20432;-72
2023/12/22 10:02:42;;;;;;;4.37;2.10;;;7.00;56.70;;;;;;5011086;28;20501;-72
2023/12/22 10:05:09;;;;;;;9.37;4.07;;;7.00;54.80;;;;;;5011337;28;20511;-70
2023/12/22 10:07:35;;;;;;;6.80;2.13;;;7.00;54.60;;;;;;5011710;28;20580;-71
2023/12/22 10:10:04;;;;;;;4.40;1.70;;;7.00;54.80;;;;;;5012220;28;20804;-71
2023/12/22 10:12:30;;;;;;;5.73;1.97;;;7.10;54.80;;;;;;5014784;28;20211;-71
2023/12/22 10:14:58;;;;;;;12.23;2.53;;;7.10;53.30;;;;;;5014954;28;20432;-71
2023/12/22 10:17:25;;;;;;;5.97;2.10;;;7.10;53.50;;;;;;4997205;28;20416;-71
2023/12/22 10:19:50;;;;;;;6.70;2.60;;;7.20;52.40;;;;;;5014630;28;20455;-71
2023/12/22 10:22:17;;;;;;;10.23;2.13;;;7.10;53.20;;;;;;4997097;28;20979;-71
2023/12/22 10:24:47;;;;;;;5.33;2.37;;;7.10;54.00;;;;;;5014556;28;20201;-71
2023/12/22 10:27:14;;;;;;;7.20;2.70;;;7.10;53.90;;;;;;5014838;28;20478;-71
2023/12/22 10:29:40;;;;;;;10.93;2.43;;;7.10;53.20;;;;;;5014530;28;20426;-70
2023/12/22 10:32:07;;;;;;;7.50;1.70;;;7.10;53.20;;;;;;5014527;28;20523;-71
2023/12/22 10:34:33;;;;;;;6.83;2.77;;;7.10;52.60;;;;;;5014395;28;20462;-71
2023/12/22 10:36:59;;;;;;;6.93;2.27;;;7.10;52.70;;;;;;4999253;28;20516;-71
2023/12/22 10:39:29;;;;;;;8.40;2.37;;;7.20;52.50;;;;;;5014186;28;20416;-71
2023/12/22 10:41:56;;;;;;;4.20;1.70;;;7.20;51.20;;;;;;5014353;28;20432;-70
2023/12/22 10:44:25;;;;;;;6.90;2.70;;;7.30;50.60;;;;;;5014319;28;20417;-70
2023/12/22 10:46:51;;;;;;;13.90;2.40;;;7.20;50.00;;;;;;5014278;28;20418;-71
2023/12/22 10:49:17;;;;;;;4.23;2.33;;;7.20;50.90;;;;;;5014007;28;20547;-71
2023/12/22 10:51:42;;;;;;;3.57;2.57;;;7.20;51.40;;;;;;4996527;28;20602;-70
2023/12/22 10:54:08;;;;;;;9.03;2.83;;;7.20;50.60;;;;;;5014125;28;20188;-70
2023/12/22 10:56:34;;;;;;;7.67;2.23;;;7.20;51.20;;;;;;4996592;28;20282;-70
2023/12/22 10:59:01;;;;;;;4.93;1.30;;;7.20;51.30;;;;;;5013810;28;20427;-70
2023/12/22 11:01:29;;;;;;;3.70;1.93;;;7.20;51.70;;;;;;5013881;28;20831;-70
2023/12/22 11:04:01;;;;;;;7.20;1.90;;;7.20;51.30;;;;;;5013856;28;20424;-70
2023/12/22 11:06:29;;;;;;;7.93;2.20;;;7.10;51.80;;;;;;5013891;28;20435;-70
2023/12/22 11:08:57;;;;;;;6.60;2.37;;;7.20;51.20;;;;;;4995286;28;20458;-70
2023/12/22 11:11:33;;;;;;;8.87;2.93;;;7.20;51.30;;;;;;5014819;28;20930;-70
2023/12/22 11:14:00;;;;;;;6.50;2.20;;;7.20;51.70;;;;;;4996141;28;20423;-70
2023/12/22 11:16:28;;;;;;;5.90;2.90;;;7.20;51.50;;;;;;5013676;28;20414;-70
2023/12/22 11:18:55;;;;;;;10.50;2.40;;;7.20;52.50;;;;;;5014062;28;20421;-70
2023/12/22 11:21:22;;;;;;;7.87;2.40;;;7.20;52.10;;;;;;4996004;28;20445;-70
2023/12/22 11:23:50;;;;;;;5.70;1.97;;;7.20;53.30;;;;;;5013628;28;20460;-71
2023/12/22 11:26:17;;;;;;;7.40;2.33;;;7.20;52.90;;;;;;5013468;28;20421;-70
2023/12/22 11:28:45;;;;;;;5.67;2.40;;;7.30;53.50;;;;;;5013444;28;20450;-70
2023/12/22 11:31:12;;;;;;;9.23;2.50;;;7.30;53.80;;;;;;5013500;28;20434;-70
2023/12/22 11:33:43;;;;;;;3.57;2.37;;;7.40;53.80;;;;;;5013494;28;20421;-70
2023/12/22 11:36:09;;;;;;;5.40;2.20;;;7.40;53.30;;;;;;5013152;28;20421;-70
2023/12/22 11:38:35;;;;;;;5.07;2.27;;;7.30;54.10;;;;;;5013287;28;20436;-70
2023/12/22 11:41:02;;;;;;;6.50;2.37;;;7.30;53.90;;;;;;5013186;28;20806;-70
2023/12/22 11:43:29;;;;;;;10.90;2.37;;;7.30;54.40;;;;;;5013810;28;21037;-70
2023/12/22 11:45:56;;;;;;;7.70;2.37;;;7.20;54.90;;;;;;5012920;28;20422;-70
2023/12/22 11:48:22;;;;;;;5.53;2.60;;;7.30;55.00;;;;;;5013073;28;20488;-70
2023/12/22 11:50:48;;;;;;;6.70;1.83;;;7.20;55.60;;;;;;5016051;28;20440;-72
2023/12/22 11:53:29;;;;;;;5.43;1.77;;;7.30;56.40;;;;;;5020463;28;20821;-71
2023/12/22 11:56:04;;;;;;;4.73;2.60;;;7.30;55.00;;;;;;5023313;28;20224;-70
2023/12/22 11:58:52;;;;;;;3.60;1.60;;;7.20;56.00;;;;;;5012748;28;20424;-70
2023/12/22 12:01:19;;;;;;;4.57;1.83;;;7.20;55.60;;;;;;4995132;28;20469;-71
2023/12/22 12:03:55;;;;;;;6.97;2.20;;;7.20;56.00;;;;;;4995104;28;20442;-71
2023/12/22 12:06:26;;;;;;;3.00;1.90;;;7.20;56.10;;;;;;5012159;28;20416;-70
2023/12/22 12:08:59;;;;;;;3.00;1.37;;;7.30;56.70;;;;;;5011921;28;20452;-70
2023/12/22 12:11:59;;;;;;;2.20;1.00;;;7.30;55.60;;;;;;5012549;28;20432;-71
2023/12/22 12:14:33;;;;;;;4.90;1.00;;;7.40;55.00;;;;;;5012313;28;20416;-71
2023/12/22 12:17:07;;;;;;;3.93;1.10;;;7.40;54.80;;;;;;5012490;28;20916;-71
2023/12/22 12:19:34;;;;;;;5.83;2.30;;;7.30;55.10;;;;;;4994551;28;20535;-71
2023/12/22 12:22:00;;;;;;;3.10;1.37;;;7.30;55.30;;;;;;4994435;28;20552;-71
2023/12/22 12:24:27;;;;;;;1.93;0.90;;;7.30;55.70;;;;;;4994658;28;20432;-71
2023/12/22 12:26:53;;;;;;;2.73;1.10;;;7.30;55.40;;;;;;5012284;28;20433;-71
2023/12/22 12:29:21;;;;;;;5.20;1.57;;;7.30;55.70;;;;;;5012035;28;20821;-71
2023/12/22 12:31:47;;;;;;;3.63;1.40;;;7.30;56.00;;;;;;5012279;28;20616;-70
2023/12/22 12:34:14;;;;;;;4.57;1.30;;;7.30;56.80;;;;;;4994206;28;20502;-71
2023/12/22 12:36:40;;;;;;;3.73;1.87;;;7.40;57.20;;;;;;5012205;28;20177;-71
2023/12/22 12:39:07;;;;;;;2.20;1.10;;;7.40;57.00;;;;;;4994377;28;20420;-71
2023/12/22 12:41:43;;;;;;;2.43;1.27;;;7.40;57.30;;;;;;4994408;28;20548;-71
2023/12/22 12:44:10;;;;;;;6.13;1.50;;;7.40;57.00;;;;;;4994542;28;20466;-71
2023/12/22 12:46:36;;;;;;;4.93;1.40;;;7.50;57.20;;;;;;5011762;28;20524;-71
2023/12/22 12:49:06;;;;;;;4.40;1.40;;;7.50;56.30;;;;;;5011578;28;20543;-70
2023/12/22 12:51:38;;;;;;;3.27;1.13;;;7.60;56.50;;;;;;5012222;28;20461;-71
2023/12/22 12:54:05;;;;;;;4.40;1.27;;;7.70;55.90;;;;;;5012277;28;20413;-71
2023/12/22 12:56:45;;;;;;;5.63;1.37;;;7.80;54.10;;;;;;5012104;28;20499;-73